Aventuras — WDH6689 — position and weather

sailwx.info

Track history (hours):
 
Tides and Currents Weather Stations Pressure Air Temp Water Temp Dewpoint Dewpoint Depression Visibility Wind Speed Wind Dir Waves Ship Positions

Aventuras

Owner: Findley, Robert W, Seattle, WA. More information available from US FCC via Universal Licensing System and Coast Guard Vessel Documentation Center.

Last reported at 2018-Aug-19 16:38 UTC. Time now 2018-Aug-20 16:20 UTC.
Position N 48°35' W 122°55'.

Length 17 m.

Type: Pleasure craft. MMSI: 367640650.

Date/timePositionNaut miles runAvg speedWind from/ knotsBaromVisibWave heightAir tempDewpointWater temp
2018-Aug-19 16:38N 48°35' W 122°55'2 8.2
2018-Aug-19 16:24N 48°34' W 122°53'3 8.7
2018-Aug-19 16:00N 48°32' W 122°49'41 0.9
2018-Aug-17 17:01N 47°55' W 122°22'3 9.8
2018-Aug-17 16:45N 47°52' W 122°23'310.1
2018-Aug-17 16:29N 47°50' W 122°24'5 9.9
2018-Aug-17 16:00N 47°45' W 122°25'5 9.7
2018-Aug-17 15:30N 47°40' W 122°26'3 6.2
2018-Aug-17 15:00N 47°38' W 122°24'0 0.0
2018-Aug-17 14:00N 47°38' W 122°24'0 0.0
2018-Aug-17 13:30N 47°38' W 122°24'0 0.0
2018-Aug-17 13:00N 47°38' W 122°24'0 0.0
2018-Aug-17 12:30N 47°38' W 122°24'0 0.0
2018-Aug-17 12:00N 47°38' W 122°24'0 0.0
2018-Aug-17 11:30N 47°38' W 122°24'0 0.0
2018-Aug-17 11:00N 47°38' W 122°24'0 0.0
2018-Aug-17 10:30N 47°38' W 122°24'0 0.0
2018-Aug-17 10:00N 47°38' W 122°24'0 0.0
2018-Aug-17 09:30N 47°38' W 122°24'0 0.0
2018-Aug-17 09:00N 47°38' W 122°24'0 0.0
2018-Aug-17 08:30N 47°38' W 122°24'0 0.0
2018-Aug-17 08:00N 47°38' W 122°24'0 0.0
2018-Aug-17 07:30N 47°38' W 122°24'0 0.0
2018-Aug-17 07:00N 47°38' W 122°24'0 0.0
2018-Aug-17 06:30N 47°38' W 122°24'0 0.0
2018-Aug-17 06:00N 47°38' W 122°24'0 0.0
2018-Aug-17 05:30N 47°38' W 122°24'0 0.0
2018-Aug-17 05:00N 47°38' W 122°24'0 0.0
2018-Aug-17 04:30N 47°38' W 122°24'0 0.0
2018-Aug-17 04:00N 47°38' W 122°24'0 0.0
2018-Aug-17 03:30N 47°38' W 122°24'0 0.0
2018-Aug-17 03:00N 47°38' W 122°24'0 0.0
2018-Aug-17 02:30N 47°38' W 122°24'0 0.0
2018-Aug-17 02:00N 47°38' W 122°24'0 0.0
2018-Aug-17 01:30N 47°38' W 122°24'0 0.0
2018-Aug-17 01:00N 47°38' W 122°24'0 0.0
2018-Aug-17 00:30N 47°38' W 122°24'0 0.0
2018-Aug-17 00:00N 47°38' W 122°24'0 0.0
2018-Aug-16 23:30N 47°38' W 122°24'0 0.0
2018-Aug-16 23:00N 47°38' W 122°24'0 0.0
2018-Aug-16 22:30N 47°38' W 122°24'0 0.0
2018-Aug-16 22:00N 47°38' W 122°24'0 0.0
2018-Aug-16 21:30N 47°38' W 122°24'0 0.0
2018-Aug-16 21:00N 47°38' W 122°24'0 0.0
2018-Aug-16 20:30N 47°38' W 122°24'0 0.0
2018-Aug-16 20:00N 47°38' W 122°24'0 0.0
2018-Aug-16 19:30N 47°38' W 122°24'0 0.0
2018-Aug-16 19:00N 47°38' W 122°24'0 0.0
2018-Aug-16 18:30N 47°38' W 122°24'0 0.0
2018-Aug-16 18:00N 47°38' W 122°24'0 0.0
2018-Aug-16 17:30N 47°38' W 122°24'0 0.0
2018-Aug-16 17:00N 47°38' W 122°24'0 0.0
2018-Aug-16 16:30N 47°38' W 122°24'0 0.0
2018-Aug-16 16:00N 47°38' W 122°24'0 0.0
2018-Aug-16 15:30N 47°38' W 122°24'0 0.0
2018-Aug-16 15:00N 47°38' W 122°24'0 0.0
2018-Aug-16 14:30N 47°38' W 122°24'0 0.0
2018-Aug-16 14:00N 47°38' W 122°24'0 0.0
2018-Aug-16 13:30N 47°38' W 122°24'0 0.0
2018-Aug-16 13:00N 47°38' W 122°24'0 0.0
2018-Aug-16 12:30N 47°38' W 122°24'0 0.0
2018-Aug-16 12:00N 47°38' W 122°24'0 0.0
2018-Aug-16 11:30N 47°38' W 122°24'0 0.0
2018-Aug-16 11:00N 47°38' W 122°24'0 0.0
2018-Aug-16 10:30N 47°38' W 122°24'0 0.0
2018-Aug-16 10:00N 47°38' W 122°24'0 0.0
2018-Aug-16 09:30N 47°38' W 122°24'0 0.0
2018-Aug-16 09:00N 47°38' W 122°24'0 0.0
2018-Aug-16 08:30N 47°38' W 122°24'0 0.0
2018-Aug-16 08:00N 47°38' W 122°24'0 0.0
2018-Aug-16 07:30N 47°38' W 122°24'0 0.0
2018-Aug-16 07:00N 47°38' W 122°24'0 0.0
2018-Aug-16 06:30N 47°38' W 122°24'0 0.0
2018-Aug-16 06:00N 47°38' W 122°24'0 0.0
2018-Aug-16 05:30N 47°38' W 122°24'0 0.0
2018-Aug-16 05:00N 47°38' W 122°24'0 0.0
2018-Aug-16 04:30N 47°38' W 122°24'0 0.0
2018-Aug-16 04:00N 47°38' W 122°24'0 0.0
2018-Aug-16 03:30N 47°38' W 122°24'0 0.0
2018-Aug-16 03:00N 47°38' W 122°24'0 0.0
2018-Aug-16 02:30N 47°38' W 122°24'0 0.0
2018-Aug-16 02:00N 47°38' W 122°24'0 0.0
2018-Aug-16 01:30N 47°38' W 122°24'0 0.0
2018-Aug-16 01:00N 47°38' W 122°24'0 0.0
2018-Aug-16 00:30N 47°38' W 122°24'0 0.0
2018-Aug-16 00:00N 47°38' W 122°24'0 0.0
2018-Aug-15 23:30N 47°38' W 122°24'0 0.0
2018-Aug-15 23:00N 47°38' W 122°24'0 0.0
2018-Aug-15 22:30N 47°38' W 122°24'0 0.0
2018-Aug-15 22:00N 47°38' W 122°24'0 0.0
2018-Aug-15 21:30N 47°38' W 122°24'0 0.0
2018-Aug-15 21:00N 47°38' W 122°24'0 0.0
2018-Aug-15 20:30N 47°38' W 122°24'0 0.0
2018-Aug-15 20:00N 47°38' W 122°24'0 0.0
2018-Aug-15 19:30N 47°38' W 122°24'0 0.0
2018-Aug-15 19:00N 47°38' W 122°24'0 0.0
2018-Aug-15 18:30N 47°38' W 122°24'0 0.0
2018-Aug-15 17:57N 47°38' W 122°24'0 0.0
2018-Aug-15 17:30N 47°38' W 122°24'0 0.0
2018-Aug-15 17:00N 47°38' W 122°24'0 0.0
2018-Aug-15 16:30N 47°38' W 122°24'0 0.0
2018-Aug-15 16:00N 47°38' W 122°24'0 0.0
2018-Aug-15 15:30N 47°38' W 122°24'0 0.0
2018-Aug-15 15:00N 47°38' W 122°24'0 0.0
2018-Aug-15 14:30N 47°38' W 122°24'0 0.0
2018-Aug-15 14:00N 47°38' W 122°24'0 0.0
2018-Aug-15 13:30N 47°38' W 122°24'0 0.0
2018-Aug-15 13:00N 47°38' W 122°24'0 0.0
2018-Aug-15 12:30N 47°38' W 122°24'0 0.0
2018-Aug-15 12:00N 47°38' W 122°24'0 0.0
2018-Aug-15 11:30N 47°38' W 122°24'0 0.0
2018-Aug-15 11:00N 47°38' W 122°24'0 0.0
2018-Aug-15 10:30N 47°38' W 122°24'0 0.0
2018-Aug-15 10:00N 47°38' W 122°24'0 0.0
2018-Aug-15 09:30N 47°38' W 122°24'0 0.0
2018-Aug-15 09:00N 47°38' W 122°24'0 0.0
2018-Aug-15 08:24N 47°38' W 122°24'0 0.0
2018-Aug-15 08:00N 47°38' W 122°24'0 0.0
2018-Aug-15 07:30N 47°38' W 122°24'0 0.0
2018-Aug-15 07:00N 47°38' W 122°24'0 0.0
2018-Aug-15 06:30N 47°38' W 122°24'0 0.0
2018-Aug-15 06:00N 47°38' W 122°24'0 0.0
2018-Aug-15 05:30N 47°38' W 122°24'0 0.0
2018-Aug-15 05:00N 47°38' W 122°24'0 0.0
2018-Aug-15 04:30N 47°38' W 122°24'0 0.0
2018-Aug-15 04:00N 47°38' W 122°24'0 0.0
2018-Aug-15 03:30N 47°38' W 122°24'0 0.0
2018-Aug-15 03:00N 47°38' W 122°24'0 0.0
2018-Aug-15 02:30N 47°38' W 122°24'0 0.0
2018-Aug-15 02:00N 47°38' W 122°24'0 0.0
2018-Aug-15 01:30N 47°38' W 122°24'0 0.0
2018-Aug-15 01:00N 47°38' W 122°24'0 0.0
2018-Aug-15 00:30N 47°38' W 122°24'0 0.0
2018-Aug-15 00:00N 47°38' W 122°24'0 0.0
2018-Aug-14 23:30N 47°38' W 122°24'0 0.0
2018-Aug-14 23:00N 47°38' W 122°24'0 0.0
2018-Aug-14 22:30N 47°38' W 122°24'0 0.0
2018-Aug-14 21:57N 47°38' W 122°24'0 0.0
2018-Aug-14 21:30N 47°38' W 122°24'0 0.0
2018-Aug-14 21:00N 47°38' W 122°24'0 0.0
2018-Aug-14 20:30N 47°38' W 122°24'0 0.0
2018-Aug-14 20:00N 47°38' W 122°24'0 0.0
2018-Aug-14 19:30N 47°38' W 122°24'0 0.0
2018-Aug-14 19:00N 47°38' W 122°24'0 0.0
2018-Aug-14 18:30N 47°38' W 122°24'0 0.0
2018-Aug-14 18:00N 47°38' W 122°24'0 0.0
2018-Aug-14 17:30N 47°38' W 122°24'0 0.0
2018-Aug-14 17:00N 47°38' W 122°24'0 0.0
2018-Aug-14 16:24N 47°38' W 122°24'0 0.0
2018-Aug-14 16:00N 47°38' W 122°24'0 0.0
2018-Aug-13 22:51N 47°38' W 122°24'0 0.0
2018-Aug-13 22:30N 47°38' W 122°24'0 0.0
2018-Aug-13 22:00N 47°38' W 122°24'0 0.0
2018-Aug-13 18:54N 47°38' W 122°24'0 0.0
2018-Aug-13 18:21N 47°38' W 122°24'0 0.0
2018-Aug-13 13:30N 47°38' W 122°24'0 0.0
2018-Aug-13 12:54N 47°38' W 122°24'0 0.0
2018-Aug-13 10:54N 47°38' W 122°24'0 0.0
2018-Aug-13 09:54N 47°38' W 122°24'0 0.0
2018-Aug-13 09:18N 47°38' W 122°24'0 0.0
2018-Aug-13 08:54N 47°38' W 122°24'0 0.0
2018-Aug-13 08:30N 47°38' W 122°24'0 0.0
2018-Aug-12 23:42N 47°38' W 122°24'0 0.0
2018-Aug-12 22:36N 47°38' W 122°24'0 0.0
2018-Aug-12 22:30N 47°38' W 122°24'0 0.0
2018-Aug-12 11:36N 47°38' W 122°24'0 0.0
2018-Aug-12 11:30N 47°38' W 122°24'0 0.0
2018-Aug-12 11:00N 47°38' W 122°24'0 0.0
2018-Aug-12 10:24N 47°38' W 122°24'0 0.0
2018-Aug-10 18:42N 47°38' W 122°24'0 0.0
2018-Aug-10 18:30N 47°38' W 122°24'0 0.0
2018-Aug-10 17:54N 47°38' W 122°24'0 0.0
2018-Aug-10 17:30N 47°38' W 122°24'0 0.0
2018-Aug-10 17:00N 47°38' W 122°24'0 0.0
2018-Aug-10 16:30N 47°38' W 122°24'0 0.0
2018-Aug-10 16:00N 47°38' W 122°24'0 0.0
2018-Aug-10 15:30N 47°38' W 122°24'0 0.0
2018-Aug-10 15:00N 47°38' W 122°24'0 0.0
2018-Aug-10 14:30N 47°38' W 122°24'0 0.0
2018-Aug-10 14:00N 47°38' W 122°24'0 0.0
2018-Aug-10 13:30N 47°38' W 122°24'0 0.0
2018-Aug-10 13:00N 47°38' W 122°24'0 0.0
2018-Aug-10 12:30N 47°38' W 122°24'0 0.0
2018-Aug-10 12:00N 47°38' W 122°24'0 0.0
2018-Aug-10 11:30N 47°38' W 122°24'0 0.0
2018-Aug-10 11:00N 47°38' W 122°24'0 0.0
2018-Aug-10 10:30N 47°38' W 122°24'0 0.0
2018-Aug-10 10:00N 47°38' W 122°24'0 0.0
2018-Aug-10 09:30N 47°38' W 122°24'0 0.0
2018-Aug-10 09:00N 47°38' W 122°24'0 0.0
2018-Aug-10 08:30N 47°38' W 122°24'0 0.0
2018-Aug-10 08:00N 47°38' W 122°24'0 0.0
2018-Aug-10 07:30N 47°38' W 122°24'0 0.0
2018-Aug-10 07:00N 47°38' W 122°24'0 0.0
2018-Aug-10 06:30N 47°38' W 122°24'0 0.0
2018-Aug-10 06:00N 47°38' W 122°24'0 0.0
2018-Aug-10 05:30N 47°38' W 122°24'0 0.0
2018-Aug-10 05:00N 47°38' W 122°24'0 0.0
2018-Aug-10 04:30N 47°38' W 122°24'0 0.0
2018-Aug-10 04:00N 47°38' W 122°24'0 0.0
2018-Aug-10 03:30N 47°38' W 122°24'0 0.0
2018-Aug-10 03:00N 47°38' W 122°24'0 0.0
2018-Aug-10 02:30N 47°38' W 122°24'0 0.0
2018-Aug-10 02:00N 47°38' W 122°24'0 0.0
2018-Aug-10 01:30N 47°38' W 122°24'0 0.0
2018-Aug-10 01:00N 47°38' W 122°24'0 0.0
2018-Aug-10 00:30N 47°38' W 122°24'0 0.0
2018-Aug-10 00:00N 47°38' W 122°24'0 0.0
2018-Aug-09 23:27N 47°38' W 122°24'0 0.0
2018-Aug-09 23:00N 47°38' W 122°24'0 0.0
2018-Aug-09 22:30N 47°38' W 122°24'0 0.0
2018-Aug-09 22:00N 47°38' W 122°24'0 0.0
2018-Aug-09 21:30N 47°38' W 122°24'0 0.0
2018-Aug-09 21:00N 47°38' W 122°24'0 0.0
2018-Aug-09 20:30N 47°38' W 122°24'0 0.0
2018-Aug-09 20:00N 47°38' W 122°24'0 0.0
2018-Aug-09 19:30N 47°38' W 122°24'0 0.0
2018-Aug-09 19:00N 47°38' W 122°24'0 0.0
2018-Aug-09 18:30N 47°38' W 122°24'0 0.0
2018-Aug-09 18:00N 47°38' W 122°24'0 0.0
2018-Aug-09 17:30N 47°38' W 122°24'0 0.0
2018-Aug-09 17:00N 47°38' W 122°24'  
Track history (hours):
 
Tides and Currents Weather Stations Pressure Air Temp Water Temp Dewpoint Dewpoint Depression Visibility Wind Speed Wind Dir Waves Ship Positions

Aventuras

Owner: Findley, Robert W, Seattle, WA. More information available from US FCC via Universal Licensing System and Coast Guard Vessel Documentation Center.

Last reported at 2018-Aug-19 16:38 UTC. Time now 2018-Aug-20 16:20 UTC.
Position N 48°35' W 122°55'.

Length 17 m.

Type: Pleasure craft. MMSI: 367640650.

Date/timePositionNaut miles runAvg speedWind from/ knotsBaromVisibWave heightAir tempDewpointWater temp
2018-Aug-19 16:38N 48°35' W 122°55'2 8.2
2018-Aug-19 16:24N 48°34' W 122°53'3 8.7
2018-Aug-19 16:00N 48°32' W 122°49'41 0.9
2018-Aug-17 17:01N 47°55' W 122°22'3 9.8
2018-Aug-17 16:45N 47°52' W 122°23'310.1
2018-Aug-17 16:29N 47°50' W 122°24'5 9.9
2018-Aug-17 16:00N 47°45' W 122°25'5 9.7
2018-Aug-17 15:30N 47°40' W 122°26'3 6.2
2018-Aug-17 15:00N 47°38' W 122°24'0 0.0
2018-Aug-17 14:00N 47°38' W 122°24'0 0.0
2018-Aug-17 13:30N 47°38' W 122°24'0 0.0
2018-Aug-17 13:00N 47°38' W 122°24'0 0.0
2018-Aug-17 12:30N 47°38' W 122°24'0 0.0
2018-Aug-17 12:00N 47°38' W 122°24'0 0.0
2018-Aug-17 11:30N 47°38' W 122°24'0 0.0
2018-Aug-17 11:00N 47°38' W 122°24'0 0.0
2018-Aug-17 10:30N 47°38' W 122°24'0 0.0
2018-Aug-17 10:00N 47°38' W 122°24'0 0.0
2018-Aug-17 09:30N 47°38' W 122°24'0 0.0
2018-Aug-17 09:00N 47°38' W 122°24'0 0.0
2018-Aug-17 08:30N 47°38' W 122°24'0 0.0
2018-Aug-17 08:00N 47°38' W 122°24'0 0.0
2018-Aug-17 07:30N 47°38' W 122°24'0 0.0
2018-Aug-17 07:00N 47°38' W 122°24'0 0.0
2018-Aug-17 06:30N 47°38' W 122°24'0 0.0
2018-Aug-17 06:00N 47°38' W 122°24'0 0.0
2018-Aug-17 05:30N 47°38' W 122°24'0 0.0
2018-Aug-17 05:00N 47°38' W 122°24'0 0.0
2018-Aug-17 04:30N 47°38' W 122°24'0 0.0
2018-Aug-17 04:00N 47°38' W 122°24'0 0.0
2018-Aug-17 03:30N 47°38' W 122°24'0 0.0
2018-Aug-17 03:00N 47°38' W 122°24'0 0.0
2018-Aug-17 02:30N 47°38' W 122°24'0 0.0
2018-Aug-17 02:00N 47°38' W 122°24'0 0.0
2018-Aug-17 01:30N 47°38' W 122°24'0 0.0
2018-Aug-17 01:00N 47°38' W 122°24'0 0.0
2018-Aug-17 00:30N 47°38' W 122°24'0 0.0
2018-Aug-17 00:00N 47°38' W 122°24'0 0.0
2018-Aug-16 23:30N 47°38' W 122°24'0 0.0
2018-Aug-16 23:00N 47°38' W 122°24'0 0.0
2018-Aug-16 22:30N 47°38' W 122°24'0 0.0
2018-Aug-16 22:00N 47°38' W 122°24'0 0.0
2018-Aug-16 21:30N 47°38' W 122°24'0 0.0
2018-Aug-16 21:00N 47°38' W 122°24'0 0.0
2018-Aug-16 20:30N 47°38' W 122°24'0 0.0
2018-Aug-16 20:00N 47°38' W 122°24'0 0.0
2018-Aug-16 19:30N 47°38' W 122°24'0 0.0
2018-Aug-16 19:00N 47°38' W 122°24'0 0.0
2018-Aug-16 18:30N 47°38' W 122°24'0 0.0
2018-Aug-16 18:00N 47°38' W 122°24'0 0.0
2018-Aug-16 17:30N 47°38' W 122°24'0 0.0
2018-Aug-16 17:00N 47°38' W 122°24'0 0.0
2018-Aug-16 16:30N 47°38' W 122°24'0 0.0
2018-Aug-16 16:00N 47°38' W 122°24'0 0.0
2018-Aug-16 15:30N 47°38' W 122°24'0 0.0
2018-Aug-16 15:00N 47°38' W 122°24'0 0.0
2018-Aug-16 14:30N 47°38' W 122°24'0 0.0
2018-Aug-16 14:00N 47°38' W 122°24'0 0.0
2018-Aug-16 13:30N 47°38' W 122°24'0 0.0
2018-Aug-16 13:00N 47°38' W 122°24'0 0.0
2018-Aug-16 12:30N 47°38' W 122°24'0 0.0
2018-Aug-16 12:00N 47°38' W 122°24'0 0.0
2018-Aug-16 11:30N 47°38' W 122°24'0 0.0
2018-Aug-16 11:00N 47°38' W 122°24'0 0.0
2018-Aug-16 10:30N 47°38' W 122°24'0 0.0
2018-Aug-16 10:00N 47°38' W 122°24'0 0.0
2018-Aug-16 09:30N 47°38' W 122°24'0 0.0
2018-Aug-16 09:00N 47°38' W 122°24'0 0.0
2018-Aug-16 08:30N 47°38' W 122°24'0 0.0
2018-Aug-16 08:00N 47°38' W 122°24'0 0.0
2018-Aug-16 07:30N 47°38' W 122°24'0 0.0
2018-Aug-16 07:00N 47°38' W 122°24'0 0.0
2018-Aug-16 06:30N 47°38' W 122°24'0 0.0
2018-Aug-16 06:00N 47°38' W 122°24'0 0.0
2018-Aug-16 05:30N 47°38' W 122°24'0 0.0
2018-Aug-16 05:00N 47°38' W 122°24'0 0.0
2018-Aug-16 04:30N 47°38' W 122°24'0 0.0
2018-Aug-16 04:00N 47°38' W 122°24'0 0.0
2018-Aug-16 03:30N 47°38' W 122°24'0 0.0
2018-Aug-16 03:00N 47°38' W 122°24'0 0.0
2018-Aug-16 02:30N 47°38' W 122°24'0 0.0
2018-Aug-16 02:00N 47°38' W 122°24'0 0.0
2018-Aug-16 01:30N 47°38' W 122°24'0 0.0
2018-Aug-16 01:00N 47°38' W 122°24'0 0.0
2018-Aug-16 00:30N 47°38' W 122°24'0 0.0
2018-Aug-16 00:00N 47°38' W 122°24'0 0.0
2018-Aug-15 23:30N 47°38' W 122°24'0 0.0
2018-Aug-15 23:00N 47°38' W 122°24'0 0.0
2018-Aug-15 22:30N 47°38' W 122°24'0 0.0
2018-Aug-15 22:00N 47°38' W 122°24'0 0.0
2018-Aug-15 21:30N 47°38' W 122°24'0 0.0
2018-Aug-15 21:00N 47°38' W 122°24'0 0.0
2018-Aug-15 20:30N 47°38' W 122°24'0 0.0
2018-Aug-15 20:00N 47°38' W 122°24'0 0.0
2018-Aug-15 19:30N 47°38' W 122°24'0 0.0
2018-Aug-15 19:00N 47°38' W 122°24'0 0.0
2018-Aug-15 18:30N 47°38' W 122°24'0 0.0
2018-Aug-15 17:57N 47°38' W 122°24'0 0.0
2018-Aug-15 17:30N 47°38' W 122°24'0 0.0
2018-Aug-15 17:00N 47°38' W 122°24'0 0.0
2018-Aug-15 16:30N 47°38' W 122°24'0 0.0
2018-Aug-15 16:00N 47°38' W 122°24'0 0.0
2018-Aug-15 15:30N 47°38' W 122°24'0 0.0
2018-Aug-15 15:00N 47°38' W 122°24'0 0.0
2018-Aug-15 14:30N 47°38' W 122°24'0 0.0
2018-Aug-15 14:00N 47°38' W 122°24'0 0.0
2018-Aug-15 13:30N 47°38' W 122°24'0 0.0
2018-Aug-15 13:00N 47°38' W 122°24'0 0.0
2018-Aug-15 12:30N 47°38' W 122°24'0 0.0
2018-Aug-15 12:00N 47°38' W 122°24'0 0.0
2018-Aug-15 11:30N 47°38' W 122°24'0 0.0
2018-Aug-15 11:00N 47°38' W 122°24'0 0.0
2018-Aug-15 10:30N 47°38' W 122°24'0 0.0
2018-Aug-15 10:00N 47°38' W 122°24'0 0.0
2018-Aug-15 09:30N 47°38' W 122°24'0 0.0
2018-Aug-15 09:00N 47°38' W 122°24'0 0.0
2018-Aug-15 08:24N 47°38' W 122°24'0 0.0
2018-Aug-15 08:00N 47°38' W 122°24'0 0.0
2018-Aug-15 07:30N 47°38' W 122°24'0 0.0
2018-Aug-15 07:00N 47°38' W 122°24'0 0.0
2018-Aug-15 06:30N 47°38' W 122°24'0 0.0
2018-Aug-15 06:00N 47°38' W 122°24'0 0.0
2018-Aug-15 05:30N 47°38' W 122°24'0 0.0
2018-Aug-15 05:00N 47°38' W 122°24'0 0.0
2018-Aug-15 04:30N 47°38' W 122°24'0 0.0
2018-Aug-15 04:00N 47°38' W 122°24'0 0.0
2018-Aug-15 03:30N 47°38' W 122°24'0 0.0
2018-Aug-15 03:00N 47°38' W 122°24'0 0.0
2018-Aug-15 02:30N 47°38' W 122°24'0 0.0
2018-Aug-15 02:00N 47°38' W 122°24'0 0.0
2018-Aug-15 01:30N 47°38' W 122°24'0 0.0
2018-Aug-15 01:00N 47°38' W 122°24'0 0.0
2018-Aug-15 00:30N 47°38' W 122°24'0 0.0
2018-Aug-15 00:00N 47°38' W 122°24'0 0.0
2018-Aug-14 23:30N 47°38' W 122°24'0 0.0
2018-Aug-14 23:00N 47°38' W 122°24'0 0.0
2018-Aug-14 22:30N 47°38' W 122°24'0 0.0
2018-Aug-14 21:57N 47°38' W 122°24'0 0.0
2018-Aug-14 21:30N 47°38' W 122°24'0 0.0
2018-Aug-14 21:00N 47°38' W 122°24'0 0.0
2018-Aug-14 20:30N 47°38' W 122°24'0 0.0
2018-Aug-14 20:00N 47°38' W 122°24'0 0.0
2018-Aug-14 19:30N 47°38' W 122°24'0 0.0
2018-Aug-14 19:00N 47°38' W 122°24'0 0.0
2018-Aug-14 18:30N 47°38' W 122°24'0 0.0
2018-Aug-14 18:00N 47°38' W 122°24'0 0.0
2018-Aug-14 17:30N 47°38' W 122°24'0 0.0
2018-Aug-14 17:00N 47°38' W 122°24'0 0.0
2018-Aug-14 16:24N 47°38' W 122°24'0 0.0
2018-Aug-14 16:00N 47°38' W 122°24'0 0.0
2018-Aug-13 22:51N 47°38' W 122°24'0 0.0
2018-Aug-13 22:30N 47°38' W 122°24'0 0.0
2018-Aug-13 22:00N 47°38' W 122°24'0 0.0
2018-Aug-13 18:54N 47°38' W 122°24'0 0.0
2018-Aug-13 18:21N 47°38' W 122°24'0 0.0
2018-Aug-13 13:30N 47°38' W 122°24'0 0.0
2018-Aug-13 12:54N 47°38' W 122°24'0 0.0
2018-Aug-13 10:54N 47°38' W 122°24'0 0.0
2018-Aug-13 09:54N 47°38' W 122°24'0 0.0
2018-Aug-13 09:18N 47°38' W 122°24'0 0.0
2018-Aug-13 08:54N 47°38' W 122°24'0 0.0
2018-Aug-13 08:30N 47°38' W 122°24'0 0.0
2018-Aug-12 23:42N 47°38' W 122°24'0 0.0
2018-Aug-12 22:36N 47°38' W 122°24'0 0.0
2018-Aug-12 22:30N 47°38' W 122°24'0 0.0
2018-Aug-12 11:36N 47°38' W 122°24'0 0.0
2018-Aug-12 11:30N 47°38' W 122°24'0 0.0
2018-Aug-12 11:00N 47°38' W 122°24'0 0.0
2018-Aug-12 10:24N 47°38' W 122°24'0 0.0
2018-Aug-10 18:42N 47°38' W 122°24'0 0.0
2018-Aug-10 18:30N 47°38' W 122°24'0 0.0
2018-Aug-10 17:54N 47°38' W 122°24'0 0.0
2018-Aug-10 17:30N 47°38' W 122°24'0 0.0
2018-Aug-10 17:00N 47°38' W 122°24'0 0.0
2018-Aug-10 16:30N 47°38' W 122°24'0 0.0
2018-Aug-10 16:00N 47°38' W 122°24'0 0.0
2018-Aug-10 15:30N 47°38' W 122°24'0 0.0
2018-Aug-10 15:00N 47°38' W 122°24'0 0.0
2018-Aug-10 14:30N 47°38' W 122°24'0 0.0
2018-Aug-10 14:00N 47°38' W 122°24'0 0.0
2018-Aug-10 13:30N 47°38' W 122°24'0 0.0
2018-Aug-10 13:00N 47°38' W 122°24'0 0.0
2018-Aug-10 12:30N 47°38' W 122°24'0 0.0
2018-Aug-10 12:00N 47°38' W 122°24'0 0.0
2018-Aug-10 11:30N 47°38' W 122°24'0 0.0
2018-Aug-10 11:00N 47°38' W 122°24'0 0.0
2018-Aug-10 10:30N 47°38' W 122°24'0 0.0
2018-Aug-10 10:00N 47°38' W 122°24'0 0.0
2018-Aug-10 09:30N 47°38' W 122°24'0 0.0
2018-Aug-10 09:00N 47°38' W 122°24'0 0.0
2018-Aug-10 08:30N 47°38' W 122°24'0 0.0
2018-Aug-10 08:00N 47°38' W 122°24'0 0.0
2018-Aug-10 07:30N 47°38' W 122°24'0 0.0
2018-Aug-10 07:00N 47°38' W 122°24'0 0.0
2018-Aug-10 06:30N 47°38' W 122°24'0 0.0
2018-Aug-10 06:00N 47°38' W 122°24'0 0.0
2018-Aug-10 05:30N 47°38' W 122°24'0 0.0
2018-Aug-10 05:00N 47°38' W 122°24'0 0.0
2018-Aug-10 04:30N 47°38' W 122°24'0 0.0
2018-Aug-10 04:00N 47°38' W 122°24'0 0.0
2018-Aug-10 03:30N 47°38' W 122°24'0 0.0
2018-Aug-10 03:00N 47°38' W 122°24'0 0.0
2018-Aug-10 02:30N 47°38' W 122°24'0 0.0
2018-Aug-10 02:00N 47°38' W 122°24'0 0.0
2018-Aug-10 01:30N 47°38' W 122°24'0 0.0
2018-Aug-10 01:00N 47°38' W 122°24'0 0.0
2018-Aug-10 00:30N 47°38' W 122°24'0 0.0
2018-Aug-10 00:00N 47°38' W 122°24'0 0.0
2018-Aug-09 23:27N 47°38' W 122°24'0 0.0
2018-Aug-09 23:00N 47°38' W 122°24'0 0.0
2018-Aug-09 22:30N 47°38' W 122°24'0 0.0
2018-Aug-09 22:00N 47°38' W 122°24'0 0.0
2018-Aug-09 21:30N 47°38' W 122°24'0 0.0
2018-Aug-09 21:00N 47°38' W 122°24'0 0.0
2018-Aug-09 20:30N 47°38' W 122°24'0 0.0
2018-Aug-09 20:00N 47°38' W 122°24'0 0.0
2018-Aug-09 19:30N 47°38' W 122°24'0 0.0
2018-Aug-09 19:00N 47°38' W 122°24'0 0.0
2018-Aug-09 18:30N 47°38' W 122°24'0 0.0
2018-Aug-09 18:00N 47°38' W 122°24'0 0.0
2018-Aug-09 17:30N 47°38' W 122°24'0 0.0
2018-Aug-09 17:00N 47°38' W 122°24'  

Dump ship's entire track history